Time;durP1;ratioP1;P1;durP2;ratioP2;P2;SDS_P1;SDS_P2;PMS_P1;PMS_P2;Temp;Humidity;BMP_temperature;BMP_pressure;BME280_temperature;BME280_humidity;BME280_pressure;Samples;Min_cycle;Max_cycle;Signal;HPM_P1;HPM_P2
2022/05/09 00:00:10;;;;;;;1.70;1.27;;;;;;;;;;5053762;28;20202;-82
2022/05/09 00:02:37;;;;;;;1.70;1.23;;;;;;;;;;5052959;28;20209;-82
2022/05/09 00:05:06;;;;;;;1.33;1.23;;;;;;;;;;5053537;28;20197;-82
2022/05/09 00:07:35;;;;;;;2.83;1.40;;;;;;;;;;5053537;28;20201;-82
2022/05/09 00:10:03;;;;;;;1.60;1.50;;;;;;;;;;5053469;28;20732;-82
2022/05/09 00:12:32;;;;;;;1.50;1.40;;;;;;;;;;5052804;28;20198;-82
2022/05/09 00:14:59;;;;;;;1.55;1.30;;;;;;;;;;5053253;28;20197;-82
2022/05/09 00:17:26;;;;;;;1.90;1.20;;;;;;;;;;5053131;28;20202;-82
2022/05/09 00:19:54;;;;;;;1.83;1.70;;;;;;;;;;5052636;28;20197;-83
2022/05/09 00:22:21;;;;;;;1.10;1.00;;;;;;;;;;5052538;28;20210;-82
2022/05/09 00:24:50;;;;;;;2.30;1.10;;;;;;;;;;5053234;28;20225;-82
2022/05/09 00:27:17;;;;;;;1.27;0.93;;;;;;;;;;5052826;28;20197;-82
2022/05/09 00:29:44;;;;;;;2.67;1.60;;;;;;;;;;5053148;28;20711;-82
2022/05/09 00:32:11;;;;;;;2.08;1.45;;;;;;;;;;5052104;28;20198;-82
2022/05/09 00:34:39;;;;;;;1.10;1.00;;;;;;;;;;5052701;28;20221;-81
2022/05/09 00:37:06;;;;;;;1.50;1.35;;;;;;;;;;5053231;28;20209;-81
2022/05/09 00:39:34;;;;;;;1.65;1.25;;;;;;;;;;5052423;28;20208;-81
2022/05/09 00:42:09;;;;;;;2.83;1.33;;;;;;;;;;5051073;28;20208;-82
2022/05/09 00:44:38;;;;;;;0.98;0.98;;;;;;;;;;5052790;28;20255;-83
2022/05/09 00:47:05;;;;;;;1.10;1.00;;;;;;;;;;5052478;28;20227;-82
2022/05/09 00:49:40;;;;;;;1.23;1.10;;;;;;;;;;5052603;28;20759;-82
2022/05/09 00:52:13;;;;;;;1.30;1.17;;;;;;;;;;5051976;28;20209;-82
2022/05/09 00:54:48;;;;;;;1.33;1.23;;;;;;;;;;5053154;28;20221;-82
2022/05/09 00:57:21;;;;;;;1.40;1.15;;;;;;;;;;5052860;28;20284;-82
2022/05/09 00:59:50;;;;;;;1.45;1.30;;;;;;;;;;5053058;28;20198;-82
2022/05/09 01:02:20;;;;;;;1.30;1.15;;;;;;;;;;5049337;28;20584;-83
2022/05/09 01:04:53;;;;;;;1.55;1.40;;;;;;;;;;5052553;28;20260;-82
2022/05/09 01:07:21;;;;;;;2.20;1.10;;;;;;;;;;5052890;28;20197;-81
2022/05/09 01:09:48;;;;;;;2.08;1.10;;;;;;;;;;5052330;28;20226;-82
2022/05/09 01:12:23;;;;;;;2.58;1.60;;;;;;;;;;5051686;28;20201;-82
2022/05/09 01:14:51;;;;;;;1.23;1.13;;;;;;;;;;5052561;28;20221;-82
2022/05/09 01:17:19;;;;;;;1.67;1.45;;;;;;;;;;5052520;28;20202;-82
2022/05/09 01:19:47;;;;;;;1.67;1.20;;;;;;;;;;5052475;28;20204;-81
2022/05/09 01:22:23;;;;;;;1.77;1.40;;;;;;;;;;5052646;28;20833;-82
2022/05/09 01:24:51;;;;;;;2.63;1.17;;;;;;;;;;5053075;28;20232;-81
2022/05/09 01:27:19;;;;;;;1.27;1.17;;;;;;;;;;5052809;28;20208;-82
2022/05/09 01:29:55;;;;;;;2.55;1.85;;;;;;;;;;5053282;28;20248;-83
2022/05/09 01:32:29;;;;;;;1.33;1.05;;;;;;;;;;5052871;28;20255;-82
2022/05/09 01:35:03;;;;;;;1.60;1.20;;;;;;;;;;5052985;28;20247;-82
2022/05/09 01:37:33;;;;;;;1.20;1.10;;;;;;;;;;5053397;28;20185;-82
2022/05/09 01:40:00;;;;;;;1.83;1.60;;;;;;;;;;5053465;28;20208;-83
2022/05/09 01:42:27;;;;;;;1.30;1.20;;;;;;;;;;5052804;28;20201;-83
2022/05/09 01:44:55;;;;;;;1.20;1.10;;;;;;;;;;5052974;28;20240;-82
2022/05/09 01:50:08;;;;;;;1.50;1.40;;;;;;;;;;5053015;28;20318;-82
2022/05/09 01:52:38;;;;;;;1.02;1.02;;;;;;;;;;5053239;28;20247;-82
2022/05/09 01:55:07;;;;;;;1.58;1.30;;;;;;;;;;5056792;28;20259;-83
2022/05/09 01:57:34;;;;;;;1.55;1.45;;;;;;;;;;5056530;28;20201;-82
2022/05/09 02:00:04;;;;;;;1.27;1.15;;;;;;;;;;5056759;28;20198;-82
2022/05/09 02:02:32;;;;;;;3.67;1.90;;;;;;;;;;5055787;28;20202;-82
2022/05/09 02:04:59;;;;;;;2.65;1.70;;;;;;;;;;5057001;28;20202;-82
2022/05/09 02:07:27;;;;;;;1.63;1.52;;;;;;;;;;5056547;28;20205;-82
2022/05/09 02:09:56;;;;;;;1.42;1.33;;;;;;;;;;5056845;28;20286;-83
2022/05/09 02:12:24;;;;;;;1.27;1.17;;;;;;;;;;5055968;28;20235;-82
2022/05/09 02:14:51;;;;;;;2.47;1.40;;;;;;;;;;5056822;28;20222;-82
2022/05/09 02:17:19;;;;;;;1.42;1.30;;;;;;;;;;5055705;28;20568;-83
2022/05/09 02:19:47;;;;;;;1.50;1.33;;;;;;;;;;5055275;28;20205;-82
2022/05/09 02:22:15;;;;;;;1.40;1.20;;;;;;;;;;5054625;28;20209;-82
2022/05/09 02:24:42;;;;;;;6.15;1.52;;;;;;;;;;5055266;28;20245;-82
2022/05/09 02:27:11;;;;;;;2.60;1.40;;;;;;;;;;5054854;28;20205;-84
2022/05/09 02:29:42;;;;;;;3.05;1.42;;;;;;;;;;5055234;28;20638;-82
2022/05/09 02:32:12;;;;;;;1.25;1.15;;;;;;;;;;5055092;28;20267;-81
2022/05/09 02:34:39;;;;;;;3.10;1.30;;;;;;;;;;5035483;28;20265;-82
2022/05/09 02:37:07;;;;;;;1.30;1.20;;;;;;;;;;5035251;28;20202;-82
2022/05/09 02:39:34;;;;;;;1.42;1.30;;;;;;;;;;5034864;28;20206;-81
2022/05/09 02:42:01;;;;;;;1.55;1.45;;;;;;;;;;5034366;28;20210;-82
2022/05/09 02:44:30;;;;;;;1.83;1.17;;;;;;;;;;5034452;28;20219;-82
2022/05/09 02:46:58;;;;;;;1.20;1.10;;;;;;;;;;5034429;28;20297;-82
2022/05/09 02:49:25;;;;;;;2.10;1.40;;;;;;;;;;5035039;28;20198;-81
2022/05/09 02:51:52;;;;;;;1.40;1.30;;;;;;;;;;5034149;28;20256;-82
2022/05/09 02:54:20;;;;;;;1.63;1.40;;;;;;;;;;5034846;28;20698;-82
2022/05/09 02:56:47;;;;;;;2.40;1.40;;;;;;;;;;5035036;28;20197;-83
2022/05/09 02:59:14;;;;;;;1.10;1.00;;;;;;;;;;5034506;28;20199;-82
2022/05/09 03:01:43;;;;;;;1.48;1.35;;;;;;;;;;5034316;28;20198;-83
2022/05/09 03:06:55;;;;;;;1.50;1.40;;;;;;;;;;5054689;28;20201;-82
2022/05/09 03:09:22;;;;;;;1.80;1.67;;;;;;;;;;5054211;28;20205;-81
2022/05/09 03:11:49;;;;;;;1.70;1.40;;;;;;;;;;5053508;28;20230;-81
2022/05/09 03:14:17;;;;;;;2.88;1.88;;;;;;;;;;5054567;28;20229;-81
2022/05/09 03:16:45;;;;;;;2.63;2.28;;;;;;;;;;5054087;28;20205;-82
2022/05/09 03:19:12;;;;;;;3.90;2.25;;;;;;;;;;5053553;28;20686;-81
2022/05/09 03:21:40;;;;;;;1.60;1.50;;;;;;;;;;5053763;28;20620;-84
2022/05/09 03:24:08;;;;;;;1.40;1.30;;;;;;;;;;5053918;28;20236;-81
2022/05/09 03:26:36;;;;;;;1.67;1.30;;;;;;;;;;5054110;28;20194;-81
2022/05/09 03:29:04;;;;;;;1.42;1.33;;;;;;;;;;5053952;28;20206;-82
2022/05/09 03:31:32;;;;;;;2.03;1.20;;;;;;;;;;5053756;28;20717;-82
2022/05/09 03:34:00;;;;;;;1.75;1.30;;;;;;;;;;5053580;28;20221;-82
2022/05/09 03:36:27;;;;;;;1.80;1.65;;;;;;;;;;5053397;28;20209;-82
2022/05/09 03:38:56;;;;;;;1.65;1.42;;;;;;;;;;5054289;28;20202;-81
2022/05/09 03:41:23;;;;;;;1.45;1.30;;;;;;;;;;5052003;28;20537;-82
2022/05/09 03:43:51;;;;;;;1.95;1.20;;;;;;;;;;5053497;28;20224;-82
2022/05/09 03:46:19;;;;;;;1.13;1.10;;;;;;;;;;5053268;28;20201;-82
2022/05/09 03:48:46;;;;;;;2.65;1.58;;;;;;;;;;5053554;28;20285;-83
2022/05/09 03:51:15;;;;;;;2.08;1.65;;;;;;;;;;5053156;28;20218;-82
2022/05/09 03:53:42;;;;;;;2.10;1.30;;;;;;;;;;5052780;28;20222;-83
2022/05/09 03:56:12;;;;;;;2.63;1.30;;;;;;;;;;5053763;28;20198;-83
2022/05/09 03:58:40;;;;;;;1.75;1.40;;;;;;;;;;5053631;28;20208;-82
2022/05/09 04:01:10;;;;;;;1.48;1.05;;;;;;;;;;5053651;28;20208;-82
2022/05/09 04:03:38;;;;;;;2.42;1.73;;;;;;;;;;5052704;28;20295;-82
2022/05/09 04:06:06;;;;;;;1.42;1.33;;;;;;;;;;5053761;28;20190;-82
2022/05/09 04:08:35;;;;;;;3.25;1.45;;;;;;;;;;5053553;28;20198;-82
2022/05/09 04:11:02;;;;;;;4.75;1.70;;;;;;;;;;5053229;28;20211;-82
2022/05/09 04:13:30;;;;;;;4.10;1.35;;;;;;;;;;5052582;28;20222;-83
2022/05/09 04:18:44;;;;;;;1.25;1.13;;;;;;;;;;5053122;28;20193;-83
2022/05/09 04:21:14;;;;;;;1.40;1.30;;;;;;;;;;5052973;28;20194;-82
2022/05/09 04:23:43;;;;;;;1.83;1.40;;;;;;;;;;5052606;28;20308;-83
2022/05/09 04:26:12;;;;;;;1.85;1.40;;;;;;;;;;5053035;28;20604;-82
2022/05/09 04:28:40;;;;;;;3.28;1.63;;;;;;;;;;5066352;28;20591;-80
2022/05/09 04:31:07;;;;;;;1.73;1.42;;;;;;;;;;5069467;28;20194;-81
2022/05/09 04:33:35;;;;;;;2.20;1.88;;;;;;;;;;5068547;28;20226;-81
2022/05/09 04:36:02;;;;;;;1.60;1.35;;;;;;;;;;5069564;28;20204;-81
2022/05/09 04:38:30;;;;;;;1.58;1.40;;;;;;;;;;5070253;28;20296;-81
2022/05/09 04:40:59;;;;;;;1.75;1.38;;;;;;;;;;5069550;28;20658;-81
2022/05/09 04:43:30;;;;;;;2.08;1.73;;;;;;;;;;5068137;28;20252;-81
2022/05/09 04:46:00;;;;;;;1.60;1.17;;;;;;;;;;5068028;28;20213;-81
2022/05/09 04:48:29;;;;;;;2.92;1.73;;;;;;;;;;5070367;28;20264;-81
2022/05/09 04:50:57;;;;;;;1.20;1.20;;;;;;;;;;5069828;28;20229;-82
2022/05/09 04:53:24;;;;;;;1.70;1.60;;;;;;;;;;5068637;28;20228;-81
2022/05/09 04:55:52;;;;;;;1.58;1.33;;;;;;;;;;5069607;28;20226;-81
2022/05/09 04:58:22;;;;;;;2.28;2.08;;;;;;;;;;5068367;28;20209;-80
2022/05/09 05:00:49;;;;;;;2.70;1.35;;;;;;;;;;5068521;28;20212;-81
2022/05/09 05:03:17;;;;;;;1.75;1.65;;;;;;;;;;5067335;28;20293;-81
2022/05/09 05:05:45;;;;;;;2.33;1.30;;;;;;;;;;5068401;28;20207;-82
2022/05/09 05:08:14;;;;;;;1.60;1.40;;;;;;;;;;5067770;28;20202;-81
2022/05/09 05:10:42;;;;;;;4.03;1.95;;;;;;;;;;5067380;28;20244;-82
2022/05/09 05:13:12;;;;;;;1.63;1.50;;;;;;;;;;5061684;28;20229;-77
2022/05/09 05:15:41;;;;;;;2.10;1.52;;;;;;;;;;5064253;28;20304;-80
2022/05/09 05:18:09;;;;;;;3.50;1.60;;;;;;;;;;5057338;28;20205;-77
2022/05/09 05:20:36;;;;;;;1.30;1.10;;;;;;;;;;5058077;28;20217;-80
2022/05/09 05:23:04;;;;;;;1.45;1.35;;;;;;;;;;5055701;28;20217;-78
2022/05/09 05:25:32;;;;;;;1.58;1.40;;;;;;;;;;5056360;28;20197;-77
2022/05/09 05:27:59;;;;;;;1.40;1.30;;;;;;;;;;5057081;28;20212;-78
2022/05/09 05:30:27;;;;;;;2.58;1.60;;;;;;;;;;5056471;28;20208;-78
2022/05/09 05:32:57;;;;;;;1.48;1.38;;;;;;;;;;5058029;28;20233;-78
2022/05/09 05:35:26;;;;;;;2.05;1.30;;;;;;;;;;5063571;28;20288;-78
2022/05/09 05:37:54;;;;;;;1.58;1.48;;;;;;;;;;5063316;28;20212;-78
2022/05/09 05:40:22;;;;;;;2.00;1.73;;;;;;;;;;5061625;28;20741;-78
2022/05/09 05:42:50;;;;;;;2.15;1.60;;;;;;;;;;5059676;28;20224;-78
2022/05/09 05:45:20;;;;;;;3.20;1.90;;;;;;;;;;5060385;28;20197;-77
2022/05/09 05:47:48;;;;;;;3.35;1.90;;;;;;;;;;5061738;28;20202;-78
2022/05/09 05:50:19;;;;;;;1.75;1.60;;;;;;;;;;5061941;28;20201;-78
2022/05/09 05:52:47;;;;;;;3.05;1.98;;;;;;;;;;5061998;28;20788;-78
2022/05/09 05:55:14;;;;;;;3.90;2.05;;;;;;;;;;5062368;28;20216;-78
2022/05/09 05:57:44;;;;;;;3.17;1.50;;;;;;;;;;5064076;28;20220;-78
2022/05/09 06:00:17;;;;;;;1.65;1.55;;;;;;;;;;5062349;28;20210;-77
2022/05/09 06:02:45;;;;;;;2.67;1.42;;;;;;;;;;5064987;28;20245;-78
2022/05/09 06:05:14;;;;;;;1.80;1.70;;;;;;;;;;5064656;28;20674;-78
2022/05/09 06:07:43;;;;;;;1.83;1.58;;;;;;;;;;5062591;28;20208;-78
2022/05/09 06:10:13;;;;;;;1.70;1.60;;;;;;;;;;5061449;28;20206;-78
2022/05/09 06:12:41;;;;;;;2.75;1.85;;;;;;;;;;5061313;28;20244;-78
2022/05/09 06:17:56;;;;;;;2.65;1.38;;;;;;;;;;5063818;28;20196;-78
2022/05/09 06:20:24;;;;;;;3.58;1.20;;;;;;;;;;5061092;28;20590;-78
2022/05/09 06:22:54;;;;;;;4.18;1.70;;;;;;;;;;5060476;28;20201;-79
2022/05/09 06:25:22;;;;;;;1.30;1.20;;;;;;;;;;5061472;28;20209;-79
2022/05/09 06:27:50;;;;;;;1.58;1.48;;;;;;;;;;5059120;28;20216;-79
2022/05/09 06:30:19;;;;;;;4.30;1.33;;;;;;;;;;5060659;28;20208;-79
2022/05/09 06:32:47;;;;;;;1.20;1.10;;;;;;;;;;5059044;28;20217;-79
2022/05/09 06:35:20;;;;;;;1.20;1.10;;;;;;;;;;5059232;28;20216;-79
2022/05/09 06:37:48;;;;;;;1.67;1.17;;;;;;;;;;5058044;28;20240;-78
2022/05/09 06:40:18;;;;;;;1.80;1.30;;;;;;;;;;5058040;28;20201;-79
2022/05/09 06:42:47;;;;;;;1.42;1.27;;;;;;;;;;5057882;28;20197;-79
2022/05/09 06:45:14;;;;;;;2.58;1.60;;;;;;;;;;5061739;28;20587;-79
2022/05/09 06:47:49;;;;;;;2.53;2.00;;;;;;;;;;5060579;28;20194;-78
2022/05/09 06:50:18;;;;;;;1.67;1.30;;;;;;;;;;5062311;28;20197;-79
2022/05/09 06:52:46;;;;;;;1.83;1.65;;;;;;;;;;5059707;28;20225;-79
2022/05/09 06:55:15;;;;;;;1.27;1.17;;;;;;;;;;5057099;28;20202;-79
2022/05/09 06:57:45;;;;;;;3.25;1.40;;;;;;;;;;5056739;28;20209;-79
2022/05/09 07:00:18;;;;;;;1.80;1.15;;;;;;;;;;5056490;28;20232;-79
2022/05/09 07:02:46;;;;;;;3.03;1.23;;;;;;;;;;5056717;28;20255;-79
2022/05/09 07:05:16;;;;;;;1.20;1.10;;;;;;;;;;5059721;28;20209;-81
2022/05/09 07:07:44;;;;;;;2.25;1.60;;;;;;;;;;5058095;28;20206;-79
2022/05/09 07:10:12;;;;;;;1.45;1.10;;;;;;;;;;5057380;28;20202;-79
2022/05/09 07:12:46;;;;;;;1.67;1.40;;;;;;;;;;5056102;28;20210;-79
2022/05/09 07:15:16;;;;;;;1.40;1.30;;;;;;;;;;5058564;28;20677;-80
2022/05/09 07:17:43;;;;;;;2.53;1.33;;;;;;;;;;5059469;28;20205;-79
2022/05/09 07:20:12;;;;;;;1.60;1.30;;;;;;;;;;5057477;28;20206;-80
2022/05/09 07:22:39;;;;;;;3.00;1.30;;;;;;;;;;5057128;28;20213;-79
2022/05/09 07:25:09;;;;;;;2.17;1.90;;;;;;;;;;5058836;28;20213;-79
2022/05/09 07:27:38;;;;;;;1.95;1.30;;;;;;;;;;5057758;28;20198;-79
2022/05/09 07:30:09;;;;;;;1.67;1.30;;;;;;;;;;5056049;28;20205;-81
2022/05/09 07:32:37;;;;;;;2.92;1.25;;;;;;;;;;5058790;28;20210;-80
2022/05/09 07:35:05;;;;;;;1.10;1.00;;;;;;;;;;5058965;28;20217;-80
2022/05/09 07:37:33;;;;;;;1.92;1.27;;;;;;;;;;5058770;28;20206;-79
2022/05/09 07:40:00;;;;;;;2.45;1.60;;;;;;;;;;5058205;28;20662;-80
2022/05/09 07:42:28;;;;;;;1.60;1.20;;;;;;;;;;5057366;28;20204;-79
2022/05/09 07:44:57;;;;;;;2.88;1.10;;;;;;;;;;5054980;28;20222;-79
2022/05/09 07:47:26;;;;;;;1.85;1.15;;;;;;;;;;5054875;28;20197;-79
2022/05/09 07:49:53;;;;;;;1.15;1.13;;;;;;;;;;5055243;28;20223;-80
2022/05/09 07:52:20;;;;;;;1.48;1.20;;;;;;;;;;5057593;28;20197;-80
2022/05/09 07:54:48;;;;;;;1.00;1.00;;;;;;;;;;5057615;28;20597;-80
2022/05/09 07:57:15;;;;;;;3.35;1.77;;;;;;;;;;5058994;28;20208;-80
2022/05/09 07:59:43;;;;;;;1.90;1.38;;;;;;;;;;5057715;28;20198;-80
2022/05/09 08:02:10;;;;;;;2.33;1.25;;;;;;;;;;5055969;28;20201;-79
2022/05/09 08:04:39;;;;;;;1.75;1.58;;;;;;;;;;5056169;28;20226;-80
2022/05/09 08:07:08;;;;;;;1.88;1.50;;;;;;;;;;5057816;28;20577;-80
2022/05/09 08:09:36;;;;;;;2.58;1.55;;;;;;;;;;5057072;28;20205;-80
2022/05/09 08:12:05;;;;;;;1.38;1.17;;;;;;;;;;5058197;28;20213;-80
2022/05/09 08:14:33;;;;;;;1.70;1.35;;;;;;;;;;5056782;28;20725;-80
2022/05/09 08:17:00;;;;;;;1.52;1.42;;;;;;;;;;5054116;28;20206;-80
2022/05/09 08:19:31;;;;;;;3.22;1.73;;;;;;;;;;5056970;28;20201;-80
2022/05/09 08:22:00;;;;;;;1.40;1.30;;;;;;;;;;5055032;28;20197;-79
2022/05/09 08:24:28;;;;;;;1.20;1.20;;;;;;;;;;5057817;28;20221;-80
2022/05/09 08:26:56;;;;;;;1.70;1.60;;;;;;;;;;5059689;28;20220;-80
2022/05/09 08:29:24;;;;;;;1.70;1.60;;;;;;;;;;5057155;28;20206;-80
2022/05/09 08:31:51;;;;;;;1.73;1.42;;;;;;;;;;5054617;28;20578;-80
2022/05/09 08:34:18;;;;;;;1.73;1.30;;;;;;;;;;5056878;28;20230;-80
2022/05/09 08:36:51;;;;;;;1.63;1.25;;;;;;;;;;5057755;28;20197;-80
2022/05/09 08:39:19;;;;;;;2.25;2.05;;;;;;;;;;5055938;28;20269;-81
2022/05/09 08:41:55;;;;;;;1.45;1.35;;;;;;;;;;5054278;28;20206;-80
2022/05/09 08:44:49;;;;;;;1.98;1.48;;;;;;;;;;5059659;28;20636;-80
2022/05/09 08:47:38;;;;;;;1.40;1.30;;;;;;;;;;5058797;28;20202;-80
2022/05/09 08:50:16;;;;;;;1.85;1.30;;;;;;;;;;5057706;28;20202;-80
2022/05/09 08:52:49;;;;;;;1.00;1.00;;;;;;;;;;5057202;28;20212;-80
2022/05/09 08:55:25;;;;;;;1.58;1.48;;;;;;;;;;5056330;28;20225;-80
2022/05/09 08:57:57;;;;;;;1.60;1.20;;;;;;;;;;5056440;28;20209;-80
2022/05/09 09:00:29;;;;;;;1.33;1.23;;;;;;;;;;5057632;28;20208;-80
2022/05/09 09:03:01;;;;;;;1.38;1.20;;;;;;;;;;5057382;28;20709;-80
2022/05/09 09:05:34;;;;;;;1.92;1.30;;;;;;;;;;5057859;28;20197;-80
2022/05/09 09:08:13;;;;;;;1.30;1.20;;;;;;;;;;5057747;28;20212;-80
2022/05/09 09:10:49;;;;;;;1.90;1.30;;;;;;;;;;5058465;28;20205;-81
2022/05/09 09:13:35;;;;;;;1.67;1.58;;;;;;;;;;5058638;28;20225;-80
2022/05/09 09:16:18;;;;;;;2.22;2.03;;;;;;;;;;5056197;28;20228;-80
2022/05/09 09:19:03;;;;;;;1.15;1.15;;;;;;;;;;5057270;28;20203;-81
2022/05/09 09:21:40;;;;;;;1.23;1.13;;;;;;;;;;5059059;28;20212;-81
2022/05/09 09:24:35;;;;;;;2.15;1.60;;;;;;;;;;5060450;28;20604;-81
2022/05/09 09:27:10;;;;;;;1.40;1.30;;;;;;;;;;5059022;28;20212;-82
2022/05/09 09:29:43;;;;;;;1.40;1.30;;;;;;;;;;5056878;28;20193;-80
2022/05/09 09:32:13;;;;;;;1.80;1.70;;;;;;;;;;5053622;28;20202;-81
2022/05/09 09:34:46;;;;;;;3.15;2.17;;;;;;;;;;5034206;28;20230;-81
2022/05/09 09:37:20;;;;;;;1.77;1.50;;;;;;;;;;5034166;28;20198;-81
2022/05/09 09:39:48;;;;;;;1.30;1.20;;;;;;;;;;5033705;28;20210;-81
2022/05/09 09:42:16;;;;;;;1.60;1.45;;;;;;;;;;5032834;28;20685;-81
2022/05/09 09:44:49;;;;;;;1.40;1.33;;;;;;;;;;5036197;28;20245;-82
2022/05/09 09:47:25;;;;;;;1.42;1.33;;;;;;;;;;5034338;28;20208;-82
2022/05/09 09:50:14;;;;;;;1.70;1.10;;;;;;;;;;5034056;28;20202;-82
2022/05/09 09:52:47;;;;;;;2.05;1.48;;;;;;;;;;5037202;28;20224;-80
2022/05/09 09:55:27;;;;;;;2.15;1.55;;;;;;;;;;5037985;28;20236;-82
2022/05/09 09:57:57;;;;;;;2.17;1.98;;;;;;;;;;5038869;28;20269;-80
2022/05/09 10:00:30;;;;;;;1.88;1.75;;;;;;;;;;5040707;28;20233;-80
2022/05/09 10:03:17;;;;;;;1.80;1.70;;;;;;;;;;5045475;28;20229;-81
2022/05/09 10:05:45;;;;;;;1.38;1.27;;;;;;;;;;5059159;28;20208;-80
2022/05/09 10:08:22;;;;;;;1.73;1.30;;;;;;;;;;5059295;28;20206;-80
2022/05/09 10:11:01;;;;;;;2.72;2.00;;;;;;;;;;5058168;28;20201;-81
2022/05/09 10:13:39;;;;;;;1.60;1.55;;;;;;;;;;5055724;28;20229;-82
2022/05/09 10:16:11;;;;;;;2.08;1.88;;;;;;;;;;5061186;28;20632;-81
2022/05/09 10:18:39;;;;;;;1.75;1.65;;;;;;;;;;5060611;28;20206;-81
2022/05/09 10:24:47;;;;;;;3.05;1.80;;;;;;;;;;5061539;28;20212;-82
2022/05/09 10:26:58;;;;;;;1.50;1.40;;;;;;;;;;5058327;28;20213;-81
2022/05/09 10:29:30;;;;;;;1.42;1.33;;;;;;;;;;5054342;28;20269;-81
2022/05/09 10:32:00;;;;;;;1.60;1.55;;;;;;;;;;5053697;28;20202;-81
2022/05/09 10:34:37;;;;;;;1.55;1.45;;;;;;;;;;5053501;28;20233;-81
2022/05/09 10:37:08;;;;;;;1.17;1.17;;;;;;;;;;5053277;28;20652;-81
2022/05/09 10:39:40;;;;;;;1.20;1.20;;;;;;;;;;5053052;28;20213;-81
2022/05/09 10:42:10;;;;;;;1.40;1.30;;;;;;;;;;5053456;28;20497;-81
2022/05/09 10:44:45;;;;;;;1.60;1.50;;;;;;;;;;5053098;28;20232;-81
2022/05/09 10:47:22;;;;;;;2.47;2.17;;;;;;;;;;5053181;28;20201;-80
2022/05/09 10:49:53;;;;;;;1.85;1.75;;;;;;;;;;5053189;28;20203;-80
2022/05/09 10:52:35;;;;;;;1.95;1.73;;;;;;;;;;5053749;28;20204;-80
2022/05/09 10:55:11;;;;;;;1.42;1.33;;;;;;;;;;5052472;28;20297;-80
2022/05/09 10:57:46;;;;;;;2.15;1.60;;;;;;;;;;5053478;28;20194;-80
2022/05/09 11:00:19;;;;;;;1.45;1.35;;;;;;;;;;5053838;28;20201;-81
2022/05/09 11:03:01;;;;;;;2.10;1.55;;;;;;;;;;5052352;28;20210;-80
2022/05/09 11:05:43;;;;;;;2.47;1.60;;;;;;;;;;5057146;28;20663;-81
2022/05/09 11:08:22;;;;;;;1.30;1.30;;;;;;;;;;5057554;28;20764;-81
2022/05/09 11:11:01;;;;;;;1.70;1.40;;;;;;;;;;5057279;28;20609;-81
2022/05/09 11:13:46;;;;;;;1.60;1.50;;;;;;;;;;5056931;28;20598;-81
2022/05/09 11:16:21;;;;;;;1.38;1.27;;;;;;;;;;5057279;28;20232;-81
2022/05/09 11:19:05;;;;;;;1.70;1.60;;;;;;;;;;5057807;28;20201;-82
2022/05/09 11:21:45;;;;;;;1.13;1.10;;;;;;;;;;5056799;28;20677;-81
2022/05/09 11:24:35;;;;;;;1.10;1.10;;;;;;;;;;5057501;28;20221;-80
2022/05/09 11:27:13;;;;;;;1.95;1.67;;;;;;;;;;5056876;28;20197;-81
2022/05/09 11:29:54;;;;;;;1.45;1.35;;;;;;;;;;5057517;28;20236;-81
2022/05/09 11:32:41;;;;;;;2.35;1.85;;;;;;;;;;5056301;28;20208;-81
2022/05/09 11:35:29;;;;;;;1.55;1.45;;;;;;;;;;5057223;28;20241;-80
2022/05/09 11:38:26;;;;;;;2.03;1.63;;;;;;;;;;5056620;28;20215;-81
2022/05/09 11:41:01;;;;;;;2.15;1.95;;;;;;;;;;5052304;28;20301;-82
2022/05/09 11:43:43;;;;;;;2.17;1.50;;;;;;;;;;5056123;28;20251;-81
2022/05/09 11:46:22;;;;;;;2.22;2.10;;;;;;;;;;5056726;28;20679;-82
2022/05/09 11:49:11;;;;;;;1.50;1.40;;;;;;;;;;5056831;28;20220;-82
2022/05/09 11:51:47;;;;;;;1.42;1.33;;;;;;;;;;5055826;28;20633;-80
2022/05/09 11:54:19;;;;;;;1.40;1.30;;;;;;;;;;5056532;28;20585;-81
2022/05/09 11:56:49;;;;;;;1.13;1.05;;;;;;;;;;5056320;28;20225;-81
2022/05/09 11:59:23;;;;;;;1.30;1.20;;;;;;;;;;5056016;28;20209;-81
2022/05/09 12:02:03;;;;;;;1.30;1.20;;;;;;;;;;5055671;28;20216;-81
2022/05/09 12:04:43;;;;;;;1.55;1.45;;;;;;;;;;5056164;28;20368;-80
2022/05/09 12:07:44;;;;;;;1.60;1.50;;;;;;;;;;5056616;28;20610;-81
2022/05/09 12:10:28;;;;;;;1.50;1.40;;;;;;;;;;5049990;28;20596;-81
2022/05/09 12:12:57;;;;;;;1.98;1.88;;;;;;;;;;5055594;28;20249;-81
2022/05/09 12:15:49;;;;;;;2.85;2.03;;;;;;;;;;5055975;28;20205;-80
2022/05/09 12:18:31;;;;;;;1.15;1.13;;;;;;;;;;5056179;28;20212;-81
2022/05/09 12:21:17;;;;;;;1.42;1.33;;;;;;;;;;5055983;28;20210;-81
2022/05/09 12:24:12;;;;;;;2.65;1.65;;;;;;;;;;5054706;28;20221;-80
2022/05/09 12:26:42;;;;;;;1.58;1.40;;;;;;;;;;5053443;28;20667;-81
2022/05/09 12:29:47;;;;;;;2.20;2.00;;;;;;;;;;5056136;28;20197;-80
2022/05/09 12:32:17;;;;;;;1.50;1.40;;;;;;;;;;5052147;28;20639;-81
2022/05/09 12:34:46;;;;;;;1.40;1.30;;;;;;;;;;5055538;28;20225;-80
2022/05/09 12:37:22;;;;;;;1.42;1.33;;;;;;;;;;5054089;28;20222;-80
2022/05/09 12:39:54;;;;;;;1.10;1.10;;;;;;;;;;5055579;28;20239;-80
2022/05/09 12:42:40;;;;;;;1.23;1.20;;;;;;;;;;5054574;28;20665;-80
2022/05/09 12:45:09;;;;;;;1.80;1.48;;;;;;;;;;5054522;28;20197;-80
2022/05/09 12:47:38;;;;;;;1.83;1.42;;;;;;;;;;5054380;28;20204;-80
2022/05/09 12:50:10;;;;;;;1.05;1.02;;;;;;;;;;5055059;28;20201;-80
2022/05/09 12:52:42;;;;;;;1.30;1.20;;;;;;;;;;5054379;28;20212;-80
2022/05/09 12:57:56;;;;;;;1.60;1.50;;;;;;;;;;5054773;28;20228;-80
2022/05/09 13:00:27;;;;;;;1.70;1.60;;;;;;;;;;5053936;28;20265;-79
2022/05/09 13:02:54;;;;;;;2.30;1.40;;;;;;;;;;5053732;28;20241;-81
2022/05/09 13:05:36;;;;;;;2.20;1.50;;;;;;;;;;5054168;28;20193;-80
2022/05/09 13:08:08;;;;;;;2.30;1.80;;;;;;;;;;5055067;28;20646;-80
2022/05/09 13:10:46;;;;;;;2.15;1.55;;;;;;;;;;5054420;28;20582;-80
2022/05/09 13:13:26;;;;;;;1.45;1.38;;;;;;;;;;5053497;28;20217;-81
2022/05/09 13:15:54;;;;;;;2.63;1.88;;;;;;;;;;5053557;28;20206;-81
2022/05/09 13:18:25;;;;;;;1.13;1.13;;;;;;;;;;5053700;28;20284;-81
2022/05/09 13:20:55;;;;;;;1.00;1.00;;;;;;;;;;5054300;28;20204;-80
2022/05/09 13:23:32;;;;;;;1.65;1.55;;;;;;;;;;5053626;28;20275;-80
2022/05/09 13:26:01;;;;;;;1.60;1.50;;;;;;;;;;5052623;28;20212;-79
2022/05/09 13:28:32;;;;;;;1.52;1.42;;;;;;;;;;5054113;28;20209;-81
2022/05/09 13:31:00;;;;;;;2.55;2.35;;;;;;;;;;5053473;28;20206;-80
2022/05/09 13:33:30;;;;;;;1.98;1.65;;;;;;;;;;5053135;28;20234;-79
2022/05/09 13:36:03;;;;;;;2.28;2.08;;;;;;;;;;5054406;28;20661;-81
2022/05/09 13:38:35;;;;;;;2.80;1.88;;;;;;;;;;5054295;28;20217;-80
2022/05/09 13:41:04;;;;;;;2.97;1.83;;;;;;;;;;5052921;28;20194;-81
2022/05/09 13:43:37;;;;;;;1.77;1.67;;;;;;;;;;5053172;28;20221;-80
2022/05/09 13:46:07;;;;;;;1.35;1.25;;;;;;;;;;5054167;28;20206;-80
2022/05/09 13:48:35;;;;;;;1.10;1.10;;;;;;;;;;5055341;28;20670;-79
2022/05/09 13:51:03;;;;;;;1.95;1.30;;;;;;;;;;5057936;28;20205;-80
2022/05/09 13:53:36;;;;;;;1.50;1.40;;;;;;;;;;5056828;28;20225;-80
2022/05/09 13:56:13;;;;;;;1.52;1.30;;;;;;;;;;5058032;28;20202;-80
2022/05/09 13:58:42;;;;;;;3.72;2.20;;;;;;;;;;5058538;28;20256;-80
2022/05/09 14:01:13;;;;;;;1.52;1.42;;;;;;;;;;5057684;28;20198;-80
2022/05/09 14:03:43;;;;;;;1.77;1.40;;;;;;;;;;5056698;28;20234;-80
2022/05/09 14:06:13;;;;;;;1.58;1.48;;;;;;;;;;5058257;28;20212;-81
2022/05/09 14:08:42;;;;;;;1.40;1.30;;;;;;;;;;5057897;28;20204;-80
2022/05/09 14:11:12;;;;;;;1.77;1.52;;;;;;;;;;5057396;28;20208;-80
2022/05/09 14:13:46;;;;;;;2.13;1.63;;;;;;;;;;5057315;28;20225;-80
2022/05/09 14:16:19;;;;;;;1.75;1.65;;;;;;;;;;5056460;28;20296;-80
2022/05/09 14:18:50;;;;;;;1.58;1.48;;;;;;;;;;5057765;28;20234;-80
2022/05/09 14:21:20;;;;;;;1.48;1.38;;;;;;;;;;5057548;28;20212;-81
2022/05/09 14:23:49;;;;;;;0.93;0.93;;;;;;;;;;5056678;28;20225;-80
2022/05/09 14:31:57;;;;;;;1.27;0.88;;;;;;;;;;5056395;28;20277;-81
2022/05/09 14:34:51;;;;;;;1.05;1.05;;;;;;;;;;5056402;28;20759;-80
2022/05/09 14:37:30;;;;;;;1.20;1.20;;;;;;;;;;5056925;28;20222;-81
2022/05/09 14:40:14;;;;;;;1.17;1.10;;;;;;;;;;5057459;28;20202;-81
2022/05/09 14:42:55;;;;;;;1.10;1.00;;;;;;;;;;5056253;28;20259;-80
2022/05/09 14:45:26;;;;;;;1.20;1.10;;;;;;;;;;5055812;28;20582;-80
2022/05/09 14:47:59;;;;;;;1.30;1.20;;;;;;;;;;5056649;28;20577;-81
2022/05/09 14:50:30;;;;;;;1.30;1.20;;;;;;;;;;5057162;28;20198;-80
2022/05/09 14:53:07;;;;;;;1.42;1.33;;;;;;;;;;5056617;28;20225;-81
2022/05/09 14:58:40;;;;;;;1.15;1.05;;;;;;;;;;5056616;28;20742;-80
2022/05/09 15:01:22;;;;;;;1.08;1.08;;;;;;;;;;5056119;28;20211;-80
2022/05/09 15:03:52;;;;;;;2.72;1.80;;;;;;;;;;5056139;28;20233;-80
2022/05/09 15:06:23;;;;;;;1.25;1.15;;;;;;;;;;5055085;28;20674;-80
2022/05/09 15:08:51;;;;;;;1.30;1.20;;;;;;;;;;5056592;28;20213;-80
2022/05/09 15:11:24;;;;;;;1.40;1.30;;;;;;;;;;5056256;28;20209;-80
2022/05/09 15:13:54;;;;;;;1.50;1.40;;;;;;;;;;5055844;28;20226;-81
2022/05/09 15:16:26;;;;;;;1.83;1.33;;;;;;;;;;5055650;28;20202;-81
2022/05/09 15:18:54;;;;;;;1.60;1.40;;;;;;;;;;5056139;28;20696;-80
2022/05/09 15:21:21;;;;;;;2.63;2.33;;;;;;;;;;5056484;28;20212;-81
2022/05/09 15:23:49;;;;;;;1.27;1.27;;;;;;;;;;5054994;28;20225;-80
2022/05/09 15:26:27;;;;;;;1.40;1.30;;;;;;;;;;5056198;28;20677;-81
2022/05/09 15:28:55;;;;;;;1.00;1.00;;;;;;;;;;5055009;28;20208;-81
2022/05/09 15:31:25;;;;;;;1.02;1.00;;;;;;;;;;5053069;28;20204;-81
2022/05/09 15:33:52;;;;;;;1.05;1.05;;;;;;;;;;5052425;28;20285;-80